Time;durP1;ratioP1;P1;durP2;ratioP2;P2;SDS_P1;SDS_P2;PMS_P1;PMS_P2;Temp;Humidity;BMP_temperature;BMP_pressure;BME280_temperature;BME280_humidity;BME280_pressure;Samples;Min_cycle;Max_cycle;Signal;HPM_P1;HPM_P2
2023/06/20 00:01:12;;;;;;;4.77;4.20;;;21.60;99.90;;;22.28;100.00;97789.69;5024632;28;20462;-80
2023/06/20 00:03:42;;;;;;;6.77;4.80;;;21.60;99.90;;;22.24;100.00;97777.97;5024902;28;20545;-81
2023/06/20 00:06:10;;;;;;;6.13;4.90;;;21.60;99.90;;;22.23;100.00;97776.38;5026949;28;20469;-81
2023/06/20 00:08:39;;;;;;;5.50;4.90;;;21.50;99.90;;;22.20;100.00;97776.91;5023491;28;20476;-81
2023/06/20 00:11:10;;;;;;;8.53;4.53;;;21.60;99.90;;;22.16;100.00;97761.72;5025265;28;20572;-81
2023/06/20 00:13:42;;;;;;;6.67;4.40;;;21.50;99.90;;;22.15;100.00;97760.09;5026288;28;20523;-80
2023/06/20 00:16:11;;;;;;;6.87;4.93;;;21.50;99.90;;;22.15;100.00;97746.78;5024718;28;20473;-81
2023/06/20 00:18:40;;;;;;;14.47;4.73;;;21.50;99.90;;;22.13;100.00;97752.41;5024290;28;20980;-80
2023/06/20 00:21:09;;;;;;;6.40;4.33;;;21.40;99.90;;;22.12;100.00;97753.47;5024475;28;20466;-81
2023/06/20 00:23:38;;;;;;;4.83;3.80;;;21.40;99.90;;;22.11;100.00;97751.06;5025323;28;20512;-80
2023/06/20 00:26:09;;;;;;;6.07;4.00;;;21.40;99.90;;;22.10;100.00;97755.59;5026363;28;20462;-81
2023/06/20 00:28:37;;;;;;;7.40;4.10;;;21.40;99.90;;;22.09;100.00;97754.00;5026967;28;20474;-80
2023/06/20 00:31:06;;;;;;;4.00;3.40;;;21.30;99.90;;;22.07;100.00;97756.13;5026096;28;20470;-81
2023/06/20 00:33:36;;;;;;;7.30;3.70;;;21.40;99.90;;;22.05;100.00;97747.59;5026235;28;20488;-82
2023/06/20 00:36:06;;;;;;;7.03;3.60;;;21.30;99.90;;;22.05;100.00;97739.63;5023246;28;20470;-81
2023/06/20 00:38:35;;;;;;;3.90;3.37;;;21.30;99.90;;;22.01;100.00;97742.00;5025683;28;20458;-81
2023/06/20 00:41:04;;;;;;;6.23;3.47;;;21.40;99.90;;;21.97;100.00;97740.16;5024780;28;21000;-81
2023/06/20 00:43:33;;;;;;;3.87;3.47;;;21.30;99.90;;;21.95;100.00;97731.63;5026604;28;20466;-81
2023/06/20 00:46:04;;;;;;;6.27;3.07;;;21.30;99.90;;;21.94;100.00;97741.47;5025416;28;21031;-81
2023/06/20 00:48:33;;;;;;;5.10;3.57;;;21.30;99.90;;;21.91;100.00;97736.69;5026318;28;20462;-80
2023/06/20 00:51:01;;;;;;;6.30;2.80;;;21.30;99.90;;;21.88;100.00;97741.72;5025698;28;20520;-81
2023/06/20 00:53:31;;;;;;;3.70;2.47;;;21.20;99.90;;;21.87;100.00;97734.78;5025306;28;20481;-80
2023/06/20 00:56:01;;;;;;;3.50;3.20;;;21.20;99.90;;;21.86;100.00;97743.88;5025691;28;20470;-80
2023/06/20 00:58:30;;;;;;;5.27;3.10;;;21.10;99.90;;;21.84;100.00;97741.44;5025652;28;20469;-80
2023/06/20 01:01:01;;;;;;;3.20;2.53;;;21.10;99.90;;;21.86;100.00;97738.53;5026262;28;20494;-81
2023/06/20 01:03:31;;;;;;;5.07;3.00;;;21.10;99.90;;;21.86;100.00;97743.88;5026280;28;20491;-80
2023/06/20 01:06:20;;;;;;;5.77;3.53;;;21.10;99.90;;;21.84;100.00;97730.81;5025556;28;20541;-81
2023/06/20 01:08:58;;;;;;;10.77;4.00;;;21.10;99.90;;;21.83;100.00;97723.88;5025241;28;21232;-81
2023/06/20 01:11:43;;;;;;;5.30;3.40;;;21.10;99.90;;;21.82;100.00;97729.47;5024330;28;21095;-80
2023/06/20 01:14:25;;;;;;;3.97;3.23;;;21.10;99.90;;;21.78;100.00;97725.75;5026279;28;20466;-81
2023/06/20 01:17:01;;;;;;;5.40;3.30;;;21.10;99.90;;;21.75;100.00;97734.28;5024342;28;20473;-80
2023/06/20 01:20:10;;;;;;;5.37;3.60;;;21.10;99.90;;;21.74;100.00;97730.81;5025072;28;20559;-80
2023/06/20 01:22:57;;;;;;;4.43;2.97;;;21.00;99.90;;;21.72;100.00;97727.63;5026366;28;21038;-80
2023/06/20 01:25:36;;;;;;;3.97;3.57;;;21.00;99.90;;;21.72;100.00;97732.94;5026103;28;21049;-81
2023/06/20 01:28:16;;;;;;;5.53;3.20;;;21.00;99.90;;;21.72;100.00;97732.16;5025743;28;20964;-80
2023/06/20 01:30:57;;;;;;;2.97;2.67;;;21.00;99.90;;;21.71;100.00;97725.22;5023729;28;20458;-81
2023/06/20 01:33:30;;;;;;;3.97;3.00;;;21.00;99.90;;;21.68;100.00;97723.09;5025310;28;20470;-81
2023/06/20 01:36:03;;;;;;;4.40;3.10;;;21.00;99.90;;;21.66;100.00;97727.91;5025154;28;20458;-81
2023/06/20 01:38:36;;;;;;;4.63;2.93;;;21.00;99.90;;;21.63;100.00;97729.19;5024309;28;20468;-81
2023/06/20 01:41:07;;;;;;;5.47;3.40;;;21.00;99.90;;;21.62;100.00;97732.16;5025418;28;20490;-81
2023/06/20 01:43:38;;;;;;;3.00;2.37;;;20.90;99.90;;;21.59;100.00;97734.25;5025138;28;20504;-80
2023/06/20 01:46:10;;;;;;;3.10;2.70;;;20.90;99.90;;;21.58;100.00;97738.00;5024607;28;20454;-80
2023/06/20 01:48:42;;;;;;;4.80;3.20;;;20.90;99.90;;;21.57;100.00;97728.41;5025166;28;20497;-80
2023/06/20 01:51:13;;;;;;;3.50;2.97;;;20.90;99.90;;;21.57;100.00;97732.94;5024745;28;21052;-80
2023/06/20 01:53:44;;;;;;;7.47;3.27;;;20.90;99.90;;;21.56;100.00;97731.31;5023658;28;20474;-80
2023/06/20 01:56:15;;;;;;;9.33;3.40;;;20.80;99.90;;;21.57;100.00;97732.94;5024819;28;20485;-80
2023/06/20 01:58:46;;;;;;;4.87;3.03;;;20.80;99.90;;;21.56;100.00;97721.47;5025242;28;20462;-80
2023/06/20 02:01:17;;;;;;;4.43;3.03;;;20.80;99.90;;;21.58;100.00;97722.03;5025522;28;20507;-80
2023/06/20 02:03:49;;;;;;;4.10;2.97;;;20.80;99.90;;;21.56;100.00;97724.16;5023299;28;20458;-80
2023/06/20 02:06:21;;;;;;;3.40;3.10;;;20.80;99.90;;;21.53;100.00;97719.34;5024919;28;20504;-80
2023/06/20 02:08:52;;;;;;;4.87;3.50;;;20.80;99.90;;;21.50;100.00;97717.22;5025143;28;20468;-80
2023/06/20 02:11:22;;;;;;;4.50;3.67;;;20.80;99.90;;;21.49;100.00;97720.13;5024006;28;20485;-80
2023/06/20 02:13:52;;;;;;;5.63;2.80;;;20.80;99.90;;;21.48;100.00;97714.03;5025626;28;20466;-81
2023/06/20 02:16:23;;;;;;;5.63;2.90;;;20.80;99.90;;;21.50;100.00;97703.13;5021221;28;20474;-80
2023/06/20 02:18:51;;;;;;;5.03;3.27;;;20.70;99.90;;;21.49;100.00;97715.63;5023710;28;20497;-81
2023/06/20 02:21:27;;;;;;;3.63;3.20;;;20.80;99.90;;;21.47;100.00;97704.44;5024037;28;20563;-80
2023/06/20 02:23:57;;;;;;;3.30;2.57;;;20.80;99.90;;;21.47;100.00;97709.78;5024378;28;20519;-80
2023/06/20 02:26:32;;;;;;;3.67;2.80;;;20.70;99.90;;;21.47;100.00;97709.78;5024563;28;20485;-80
2023/06/20 02:29:06;;;;;;;3.87;3.20;;;20.70;99.90;;;21.47;100.00;97712.44;5024448;28;20466;-80
2023/06/20 02:31:40;;;;;;;4.60;2.77;;;20.70;99.90;;;21.46;100.00;97710.03;5021604;28;20808;-80
2023/06/20 02:34:15;;;;;;;3.97;2.80;;;20.70;99.90;;;21.41;100.00;97716.16;5022828;28;20536;-80
2023/06/20 02:36:46;;;;;;;3.60;3.27;;;20.70;99.90;;;21.40;100.00;97725.19;5021145;28;20469;-81
2023/06/20 02:39:17;;;;;;;4.03;3.17;;;20.70;99.90;;;21.38;100.00;97719.31;5022303;28;20472;-81
2023/06/20 02:41:46;;;;;;;4.07;3.10;;;20.70;99.90;;;21.36;100.00;97726.78;5022246;28;20501;-80
2023/06/20 02:44:14;;;;;;;3.63;3.20;;;20.60;99.90;;;21.35;100.00;97725.19;5021555;28;20501;-80
2023/06/20 02:47:03;;;;;;;5.83;2.87;;;20.60;99.90;;;21.32;100.00;97725.72;5021439;28;21050;-81
2023/06/20 02:49:45;;;;;;;4.57;3.57;;;20.60;99.90;;;21.29;100.00;97726.25;5024768;28;20465;-80
2023/06/20 02:52:26;;;;;;;5.30;2.90;;;20.60;99.90;;;21.27;100.00;97727.56;5021022;28;20454;-81
2023/06/20 02:55:10;;;;;;;4.47;3.70;;;20.60;99.90;;;21.27;100.00;97724.91;5021024;28;21003;-80
2023/06/20 02:57:45;;;;;;;4.30;3.70;;;20.50;99.90;;;21.27;100.00;97720.41;5022177;28;20462;-81
2023/06/20 03:00:17;;;;;;;5.67;3.47;;;20.50;99.90;;;21.27;100.00;97719.59;5022670;28;24352;-82
2023/06/20 03:02:53;;;;;;;4.87;3.30;;;20.50;99.90;;;21.28;100.00;97723.81;5023704;28;20972;-80
2023/06/20 03:05:25;;;;;;;12.30;7.63;;;20.50;99.90;;;21.27;100.00;97731.03;5026364;28;20524;-78
2023/06/20 03:07:58;;;;;;;9.23;6.53;;;20.50;99.90;;;21.26;100.00;97723.31;5024735;28;20466;-81
2023/06/20 03:10:29;;;;;;;5.13;3.63;;;20.50;99.90;;;21.24;100.00;97731.53;5024879;28;20480;-80
2023/06/20 03:12:59;;;;;;;4.27;3.30;;;20.50;99.90;;;21.23;100.00;97737.94;5024134;28;20457;-81
2023/06/20 03:15:27;;;;;;;6.83;3.27;;;20.40;99.90;;;21.23;100.00;97735.28;5024834;28;21032;-82
2023/06/20 03:18:00;;;;;;;5.53;3.67;;;20.50;99.90;;;21.22;100.00;97739.00;5025374;28;20502;-82
2023/06/20 03:20:29;;;;;;;4.63;2.93;;;20.50;99.90;;;21.22;100.00;97732.88;5028080;28;20531;-78
2023/06/20 03:22:58;;;;;;;4.50;3.67;;;20.40;99.90;;;21.20;100.00;97719.84;5024063;28;20490;-82
2023/06/20 03:25:28;;;;;;;4.20;3.27;;;20.50;99.90;;;21.20;100.00;97719.03;5024530;28;20469;-82
2023/06/20 03:27:57;;;;;;;4.20;3.37;;;20.40;99.90;;;21.17;100.00;97725.69;5022832;28;20862;-83
2023/06/20 03:30:26;;;;;;;5.50;3.40;;;20.40;99.90;;;21.19;100.00;97734.19;5023207;28;20502;-84
2023/06/20 03:32:55;;;;;;;4.10;3.10;;;20.40;99.90;;;21.18;100.00;97737.91;5023764;28;21090;-80
2023/06/20 03:35:24;;;;;;;38.07;27.13;;;20.40;99.90;;;21.17;100.00;97739.00;5024723;28;20458;-82
2023/06/20 03:37:54;;;;;;;4.40;3.90;;;20.40;99.90;;;21.16;100.00;97742.72;5023689;28;20552;-82
2023/06/20 03:40:24;;;;;;;4.53;3.87;;;20.40;99.90;;;21.15;100.00;97743.75;5023373;28;20464;-82
2023/06/20 03:42:55;;;;;;;4.23;3.43;;;20.40;99.90;;;21.14;100.00;97741.38;5023560;28;20476;-81
2023/06/20 03:45:24;;;;;;;4.90;3.10;;;20.40;99.90;;;21.11;100.00;97745.34;5021773;28;20470;-82
2023/06/20 03:47:53;;;;;;;4.67;3.80;;;20.30;99.90;;;21.11;100.00;97741.88;5025163;28;20489;-82
2023/06/20 03:50:22;;;;;;;6.27;3.87;;;20.40;99.90;;;21.09;100.00;97744.78;5022793;28;20825;-83
2023/06/20 03:52:51;;;;;;;7.33;3.50;;;20.30;99.90;;;21.09;100.00;97739.47;5025058;28;20473;-78
2023/06/20 03:55:19;;;;;;;5.97;4.60;;;20.30;99.90;;;21.08;100.00;97751.97;5023027;28;20494;-82
2023/06/20 03:57:48;;;;;;;6.47;3.73;;;20.30;99.90;;;21.07;100.00;97739.72;5025505;28;20731;-82
2023/06/20 04:00:19;;;;;;;3.43;2.70;;;20.30;99.90;;;21.03;100.00;97743.19;5024758;28;20463;-82
2023/06/20 04:02:49;;;;;;;5.43;3.10;;;20.30;99.90;;;21.01;100.00;97745.28;5026534;28;20497;-82
2023/06/20 04:05:19;;;;;;;5.07;3.27;;;20.20;99.90;;;21.01;100.00;97750.59;5027104;28;21010;-82
2023/06/20 04:07:48;;;;;;;3.30;2.83;;;20.20;99.90;;;21.00;100.00;97759.63;5026568;28;20478;-82
2023/06/20 04:10:16;;;;;;;5.27;3.07;;;20.30;99.90;;;20.98;100.00;97751.94;5026532;28;20484;-83
2023/06/20 04:12:45;;;;;;;4.17;2.77;;;20.20;99.90;;;20.97;100.00;97747.66;5026310;28;20486;-81
2023/06/20 04:15:13;;;;;;;2.50;2.30;;;20.20;99.90;;;20.98;100.00;97748.47;5024853;28;20477;-81
2023/06/20 04:17:45;;;;;;;4.67;3.10;;;20.20;99.90;;;20.98;100.00;97749.28;5024897;28;20474;-81
2023/06/20 04:20:14;;;;;;;3.23;2.57;;;20.20;99.90;;;20.98;100.00;97749.28;5024411;28;20490;-82
2023/06/20 04:22:45;;;;;;;3.20;2.70;;;20.20;99.90;;;20.99;100.00;97750.06;5024386;28;20874;-82
2023/06/20 04:25:16;;;;;;;3.03;2.73;;;20.20;99.90;;;21.00;100.00;97746.31;5022989;28;20488;-82
2023/06/20 04:27:53;;;;;;;3.40;3.00;;;20.30;99.90;;;20.98;100.00;97743.16;5022511;28;20999;-81
2023/06/20 04:30:23;;;;;;;3.93;3.47;;;20.20;99.90;;;20.96;100.00;97745.28;5024139;28;20462;-82
2023/06/20 04:32:53;;;;;;;5.40;4.40;;;20.20;99.90;;;20.96;100.00;97745.28;5022203;28;20478;-80
2023/06/20 04:35:23;;;;;;;4.40;3.70;;;20.20;99.90;;;20.95;100.00;97744.47;5024324;28;20465;-81
2023/06/20 04:37:53;;;;;;;4.67;3.77;;;20.20;99.90;;;20.94;100.00;97745.53;5022679;28;20461;-81
2023/06/20 04:40:22;;;;;;;8.60;3.50;;;20.20;99.90;;;20.95;100.00;97749.00;5024475;28;20480;-81
2023/06/20 04:42:51;;;;;;;3.90;3.17;;;20.20;99.90;;;20.94;100.00;97747.38;5027725;28;20492;-81
2023/06/20 04:45:20;;;;;;;6.20;3.43;;;20.20;99.90;;;20.94;100.00;97747.38;5027461;28;20472;-81
2023/06/20 04:47:52;;;;;;;6.00;3.30;;;20.10;99.90;;;20.94;100.00;97748.19;5028318;28;20474;-81
2023/06/20 04:50:22;;;;;;;3.90;3.33;;;20.20;99.90;;;20.94;100.00;97750.03;5027656;28;20469;-81
2023/06/20 04:52:50;;;;;;;4.00;3.47;;;20.20;99.90;;;20.92;100.00;97752.16;5026505;28;20857;-81
2023/06/20 04:55:20;;;;;;;6.40;4.00;;;20.20;99.90;;;20.91;100.00;97756.69;5026583;28;20468;-81
2023/06/20 04:57:49;;;;;;;5.37;3.60;;;20.20;99.90;;;20.90;100.00;97740.97;5027704;28;20454;-81
2023/06/20 05:00:19;;;;;;;4.70;3.30;;;20.20;99.90;;;20.92;100.00;97747.66;5028008;28;20473;-81
2023/06/20 05:02:47;;;;;;;10.53;3.60;;;20.20;99.90;;;20.94;100.00;97748.19;5026804;28;20525;-81
2023/06/20 05:05:19;;;;;;;3.77;3.23;;;20.10;99.90;;;20.96;100.00;97745.28;5026920;28;20468;-81
2023/06/20 05:07:48;;;;;;;4.80;3.23;;;20.10;99.90;;;20.98;100.00;97743.94;5027873;28;20466;-81
2023/06/20 05:10:18;;;;;;;3.77;3.27;;;20.30;99.90;;;21.00;100.00;97746.31;5028122;28;20478;-81
2023/06/20 05:12:47;;;;;;;5.00;2.70;;;20.30;99.90;;;21.01;100.00;97745.28;5027743;28;20536;-82
2023/06/20 05:15:16;;;;;;;9.20;3.37;;;20.20;99.90;;;21.04;100.00;97740.25;5027427;28;20466;-80
2023/06/20 05:17:45;;;;;;;4.17;3.50;;;20.20;99.90;;;21.06;100.00;97750.63;5027445;28;20454;-81
2023/06/20 05:20:13;;;;;;;7.37;4.80;;;20.20;99.90;;;21.09;100.00;97745.59;5028731;28;20458;-81
2023/06/20 05:22:44;;;;;;;7.50;4.13;;;20.30;99.90;;;21.11;100.00;97742.69;5027124;28;20506;-82
2023/06/20 05:25:14;;;;;;;6.03;3.63;;;20.30;99.90;;;21.13;100.00;97743.22;5026965;28;20462;-81
2023/06/20 05:27:43;;;;;;;4.77;3.60;;;20.30;99.90;;;21.16;100.00;97747.22;5026901;28;20494;-81
2023/06/20 05:30:12;;;;;;;5.30;3.93;;;20.30;99.90;;;21.19;100.00;97744.84;5027334;28;20823;-81
2023/06/20 05:32:41;;;;;;;4.47;3.60;;;20.40;99.90;;;21.20;100.00;97746.44;5026800;28;20475;-81
2023/06/20 05:35:10;;;;;;;4.90;3.23;;;20.40;99.90;;;21.23;100.00;97751.25;5027495;28;20467;-81
2023/06/20 05:37:39;;;;;;;6.80;4.30;;;20.40;99.90;;;21.27;100.00;97756.84;5027664;28;20458;-81
2023/06/20 05:40:10;;;;;;;5.80;3.77;;;20.40;99.90;;;21.29;100.00;97760.03;5027245;28;20470;-81
2023/06/20 05:42:39;;;;;;;8.00;4.43;;;20.50;99.90;;;21.31;100.00;97764.00;5027003;28;20498;-81
2023/06/20 05:45:09;;;;;;;4.20;3.80;;;20.50;99.90;;;21.31;100.00;97761.34;5026065;28;20473;-81
2023/06/20 05:47:38;;;;;;;5.83;3.97;;;20.50;99.90;;;21.34;100.00;97763.50;5025965;28;20469;-81
2023/06/20 05:50:09;;;;;;;7.13;4.70;;;20.60;99.90;;;21.36;100.00;97758.72;5025962;28;20470;-81
2023/06/20 05:52:37;;;;;;;6.13;4.73;;;20.60;99.90;;;21.38;100.00;97761.13;5027431;28;20548;-81
2023/06/20 05:55:11;;;;;;;5.90;4.47;;;20.60;99.90;;;21.39;100.00;97763.50;5025943;28;21055;-81
2023/06/20 05:57:44;;;;;;;5.70;4.67;;;20.70;99.90;;;21.39;100.00;97770.69;5026899;28;20496;-81
2023/06/20 06:00:15;;;;;;;5.60;4.53;;;20.70;99.90;;;21.40;100.00;97762.44;5026207;28;20512;-81
2023/06/20 06:02:45;;;;;;;4.93;4.50;;;20.70;99.90;;;21.43;100.00;97758.47;5025641;28;20486;-81
2023/06/20 06:05:14;;;;;;;5.80;4.93;;;20.80;99.90;;;21.43;100.00;97761.91;5025749;28;21210;-81
2023/06/20 06:07:42;;;;;;;5.63;4.67;;;20.80;99.90;;;21.46;100.00;97758.72;5025920;28;20973;-81
2023/06/20 06:10:12;;;;;;;8.33;5.20;;;20.90;99.90;;;21.49;100.00;97754.72;5026374;28;20482;-81
2023/06/20 06:12:41;;;;;;;7.17;5.67;;;20.80;99.90;;;21.53;100.00;97753.16;5025677;28;20461;-82
2023/06/20 06:15:12;;;;;;;8.67;4.63;;;20.80;99.90;;;21.56;100.00;97755.28;5025696;28;20470;-81
2023/06/20 06:17:41;;;;;;;7.37;5.87;;;20.90;99.90;;;21.60;100.00;97753.69;5026996;28;20474;-82
2023/06/20 06:20:15;;;;;;;10.20;5.57;;;21.00;99.90;;;21.63;100.00;97747.03;5026374;28;20464;-81
2023/06/20 06:22:44;;;;;;;5.70;4.80;;;21.00;99.90;;;21.66;100.00;97749.19;5027057;28;20505;-81
2023/06/20 06:25:15;;;;;;;7.77;4.87;;;21.00;99.90;;;21.70;100.00;97752.91;5026246;28;20515;-81
2023/06/20 06:27:44;;;;;;;6.77;5.43;;;21.00;99.90;;;21.72;100.00;97751.59;5026881;28;20466;-81
2023/06/20 06:30:14;;;;;;;7.10;4.57;;;21.10;99.90;;;21.76;100.00;97752.66;5024121;28;20830;-81
2023/06/20 06:32:47;;;;;;;5.57;4.63;;;21.10;99.90;;;21.79;100.00;97748.66;5025147;28;20468;-81
2023/06/20 06:35:19;;;;;;;9.53;6.30;;;21.10;99.90;;;21.81;100.00;97752.66;5024877;28;20479;-81
2023/06/20 06:37:48;;;;;;;6.57;5.43;;;21.10;99.90;;;21.84;100.00;97752.09;5026337;28;20458;-81
2023/06/20 06:40:20;;;;;;;6.40;4.90;;;21.10;99.90;;;21.89;100.00;97751.31;5025218;28;20475;-81
2023/06/20 06:42:49;;;;;;;7.63;4.33;;;21.20;99.90;;;21.92;100.00;97756.94;5024914;28;20875;-81
2023/06/20 06:45:19;;;;;;;7.07;5.23;;;21.30;99.90;;;21.97;100.00;97750.81;5023325;28;20471;-81
2023/06/20 06:47:47;;;;;;;5.23;4.73;;;21.30;99.90;;;22.00;100.00;97755.63;5025301;28;21265;-81
2023/06/20 06:50:17;;;;;;;5.60;5.10;;;21.40;99.90;;;22.03;100.00;97757.75;5025789;28;20466;-81
2023/06/20 06:52:45;;;;;;;6.33;5.47;;;21.50;99.90;;;22.04;100.00;97756.69;5026626;28;20465;-81
2023/06/20 06:55:15;;;;;;;7.30;4.70;;;21.40;99.90;;;22.08;100.00;97755.06;5024274;28;20474;-81
2023/06/20 06:57:45;;;;;;;8.00;5.27;;;21.50;99.90;;;22.11;100.00;97738.53;5025495;28;20461;-81
2023/06/20 07:00:15;;;;;;;6.43;5.30;;;21.50;99.90;;;22.18;100.00;97743.63;5025149;28;20469;-81
2023/06/20 07:02:46;;;;;;;7.50;5.20;;;21.50;99.90;;;22.20;100.00;97734.28;5025194;28;20549;-80
2023/06/20 07:05:14;;;;;;;5.20;4.70;;;21.50;99.90;;;22.25;100.00;97742.25;5025432;28;20952;-81
2023/06/20 07:07:43;;;;;;;7.00;5.20;;;21.60;99.90;;;22.30;100.00;97747.56;5025525;28;20472;-81
2023/06/20 07:10:16;;;;;;;8.40;4.83;;;21.70;99.90;;;22.34;100.00;97747.84;5026287;28;20588;-81
2023/06/20 07:12:46;;;;;;;6.47;5.13;;;21.70;99.90;;;22.37;100.00;97742.78;5024721;28;20457;-81
2023/06/20 07:15:15;;;;;;;6.60;4.73;;;21.80;99.90;;;22.45;100.00;97744.88;5025115;28;20846;-81
2023/06/20 07:17:45;;;;;;;6.43;5.03;;;21.90;99.90;;;22.49;100.00;97745.16;5025664;28;20504;-81
2023/06/20 07:20:14;;;;;;;6.87;5.33;;;21.90;99.90;;;22.53;100.00;97746.19;5026444;28;20516;-80
2023/06/20 07:22:42;;;;;;;6.03;4.90;;;21.90;99.90;;;22.55;100.00;97749.38;5025966;28;20502;-81
2023/06/20 07:25:12;;;;;;;6.50;4.87;;;21.80;99.90;;;22.59;100.00;97748.56;5026260;28;20478;-81
2023/06/20 07:27:40;;;;;;;6.40;5.10;;;22.00;99.90;;;22.66;100.00;97736.84;5024002;28;20992;-81
2023/06/20 07:30:11;;;;;;;21.57;7.33;;;22.00;99.90;;;22.72;100.00;97743.75;5025751;28;20465;-82
2023/06/20 07:32:41;;;;;;;10.33;5.33;;;22.00;99.90;;;22.78;100.00;97745.34;5025272;28;20568;-81
2023/06/20 07:35:10;;;;;;;6.70;4.73;;;22.20;99.90;;;22.83;100.00;97748.00;5024001;28;20474;-81
2023/06/20 07:37:41;;;;;;;6.20;4.80;;;22.20;99.90;;;22.88;100.00;97747.97;5025085;28;20560;-81
2023/06/20 07:40:13;;;;;;;7.67;4.47;;;22.40;99.90;;;22.88;100.00;97751.44;5024299;28;20506;-81
2023/06/20 07:42:42;;;;;;;8.43;5.27;;;22.30;99.90;;;22.92;100.00;97749.00;5024932;28;21216;-81
2023/06/20 07:45:12;;;;;;;7.07;4.67;;;22.30;99.90;;;22.99;100.00;97752.19;5024791;28;20523;-81
2023/06/20 07:47:40;;;;;;;4.80;4.20;;;22.40;99.90;;;23.05;100.00;97754.56;5024059;28;20466;-81
2023/06/20 07:50:10;;;;;;;5.53;4.40;;;22.50;99.90;;;23.11;100.00;97749.19;5027624;28;20902;-81
2023/06/20 07:52:40;;;;;;;5.43;4.27;;;22.50;99.90;;;23.15;100.00;97740.34;5028294;28;20465;-81
2023/06/20 07:55:10;;;;;;;5.30;4.77;;;22.60;99.90;;;23.20;100.00;97747.53;5027981;28;20953;-80
2023/06/20 07:57:56;;;;;;;6.57;4.10;;;22.60;99.90;;;23.26;100.00;97744.56;5028890;28;20469;-81
2023/06/20 08:00:28;;;;;;;5.07;4.23;;;22.60;99.90;;;23.30;100.00;97748.28;5028695;28;20462;-81
2023/06/20 08:02:57;;;;;;;6.20;4.33;;;22.70;99.90;;;23.33;100.00;97742.41;5029075;28;20604;-81
2023/06/20 08:05:25;;;;;;;6.40;4.57;;;22.80;99.90;;;23.37;100.00;97731.97;5028002;28;20523;-81
2023/06/20 08:07:55;;;;;;;7.70;4.40;;;22.80;99.90;;;23.42;100.00;97742.66;5028261;28;20523;-81
2023/06/20 08:10:23;;;;;;;6.90;4.97;;;22.90;99.90;;;23.48;100.00;97738.88;5028618;28;20485;-81
2023/06/20 08:12:52;;;;;;;7.37;4.47;;;22.80;99.90;;;23.54;100.00;97738.56;5027335;28;20508;-81
2023/06/20 08:15:22;;;;;;;4.90;4.37;;;22.90;99.90;;;23.59;100.00;97742.28;5028601;28;20462;-81
2023/06/20 08:17:52;;;;;;;6.10;4.90;;;23.00;99.90;;;23.64;100.00;97744.91;5029251;28;20497;-81
2023/06/20 08:20:21;;;;;;;7.30;4.60;;;23.00;99.90;;;23.65;100.00;97746.50;5027400;28;20858;-81
2023/06/20 08:22:49;;;;;;;6.10;3.80;;;22.90;99.90;;;23.74;100.00;97734.16;5028715;28;20482;-81
2023/06/20 08:25:18;;;;;;;8.20;4.37;;;23.10;99.90;;;23.77;100.00;97736.25;5029457;28;20468;-81
2023/06/20 08:27:46;;;;;;;3.60;3.30;;;23.10;99.90;;;23.85;100.00;97738.31;5028311;28;20481;-81
2023/06/20 08:30:19;;;;;;;5.07;4.57;;;23.20;99.90;;;23.86;100.00;97734.56;5028029;28;20972;-81
2023/06/20 08:32:48;;;;;;;6.33;4.30;;;23.20;99.90;;;23.97;100.00;97728.06;5026928;28;20467;-81
2023/06/20 08:35:18;;;;;;;5.73;4.30;;;23.40;99.90;;;24.04;100.00;97736.56;5027303;28;20533;-81
2023/06/20 08:37:48;;;;;;;5.53;4.20;;;23.40;99.90;;;24.09;100.00;97733.81;5028167;28;20979;-81
2023/06/20 08:40:16;;;;;;;5.20;4.20;;;23.50;99.90;;;24.09;100.00;97723.13;5027406;28;21002;-81
2023/06/20 08:42:45;;;;;;;4.37;3.67;;;23.40;99.90;;;24.14;100.00;97720.47;5027785;28;20490;-81
2023/06/20 08:45:17;;;;;;;5.40;4.50;;;23.50;99.90;;;24.20;100.00;97724.66;5027796;28;20509;-81
2023/06/20 08:47:46;;;;;;;7.33;3.57;;;23.60;99.90;;;24.22;100.00;97719.84;5027962;28;20469;-81
2023/06/20 08:50:14;;;;;;;5.73;3.67;;;23.60;99.90;;;24.32;100.00;97717.06;5026870;28;20474;-80
2023/06/20 08:52:48;;;;;;;5.43;3.43;;;23.80;99.90;;;24.36;100.00;97717.31;5026730;28;20481;-81
2023/06/20 08:55:17;;;;;;;3.77;3.10;;;23.70;99.90;;;24.40;100.00;97721.00;5027645;28;20462;-81
2023/06/20 08:57:46;;;;;;;6.27;3.70;;;23.80;99.90;;;24.44;100.00;97733.50;5027261;28;20612;-81
2023/06/20 09:00:19;;;;;;;3.73;3.03;;;23.90;99.90;;;24.50;100.00;97729.69;5026236;28;20463;-81
2023/06/20 09:02:48;;;;;;;5.40;4.00;;;24.00;99.90;;;24.52;100.00;97722.19;5026823;28;20461;-81
2023/06/20 09:05:17;;;;;;;4.17;3.50;;;24.00;99.90;;;24.52;100.00;97722.19;5027767;28;20509;-82
2023/06/20 09:07:47;;;;;;;9.20;3.40;;;23.90;99.90;;;24.57;100.00;97717.88;5027211;28;21045;-81
2023/06/20 09:10:24;;;;;;;3.97;3.57;;;24.00;99.90;;;24.59;100.00;97713.03;5028056;28;20480;-82
2023/06/20 09:12:56;;;;;;;4.30;3.33;;;24.10;99.90;;;24.59;98.40;97718.38;5026900;28;20966;-81
2023/06/20 09:15:28;;;;;;;4.07;3.37;;;24.10;99.90;;;24.60;98.18;97707.41;5026469;28;21397;-81
2023/06/20 09:17:59;;;;;;;3.80;3.00;;;24.00;99.90;;;24.64;98.12;97721.00;5026791;28;20520;-81
2023/06/20 09:20:30;;;;;;;4.60;3.37;;;24.10;99.90;;;24.69;98.95;97718.25;5026669;28;20512;-81
2023/06/20 09:23:01;;;;;;;4.43;3.40;;;24.10;99.90;;;24.67;100.00;97712.41;5025842;28;20853;-82
2023/06/20 09:25:31;;;;;;;5.70;4.07;;;24.00;99.90;;;24.70;100.00;97715.31;5028018;28;20501;-81
2023/06/20 09:28:00;;;;;;;7.60;3.60;;;24.10;99.90;;;24.71;98.68;97724.94;5027223;28;20520;-81
2023/06/20 09:30:32;;;;;;;9.40;3.80;;;24.00;99.90;;;24.80;100.00;97722.41;5027494;28;20546;-81
2023/06/20 09:33:04;;;;;;;5.63;3.67;;;24.20;99.90;;;24.81;96.96;97727.50;5026985;28;20535;-81
2023/06/20 09:35:33;;;;;;;6.00;3.40;;;24.20;99.90;;;24.83;96.51;97727.22;5025485;28;20458;-82
2023/06/20 09:38:05;;;;;;;3.77;3.30;;;24.20;99.90;;;24.89;97.88;97723.38;5026928;28;20469;-81
2023/06/20 09:40:44;;;;;;;4.30;3.73;;;24.30;99.90;;;24.95;98.95;97719.59;5026783;28;20467;-81
2023/06/20 09:43:14;;;;;;;7.07;4.20;;;24.40;99.90;;;25.00;97.42;97722.19;5026421;28;20457;-81
2023/06/20 09:45:42;;;;;;;3.70;3.27;;;24.50;99.90;;;25.00;92.03;97712.28;5025831;28;20508;-82
2023/06/20 09:48:14;;;;;;;7.40;3.47;;;24.40;99.10;;;25.03;95.53;97716.25;5026700;28;20466;-81
2023/06/20 09:50:46;;;;;;;3.80;3.30;;;24.50;99.90;;;25.11;93.37;97715.63;5026621;28;20865;-81
2023/06/20 09:53:34;;;;;;;4.90;3.60;;;24.60;99.40;;;25.16;93.75;97720.13;5025336;28;20943;-81
2023/06/20 09:56:04;;;;;;;5.90;3.30;;;24.70;99.50;;;25.21;93.77;97722.69;5026890;28;20468;-81
2023/06/20 09:58:35;;;;;;;5.60;3.57;;;24.60;99.40;;;25.26;93.45;97720.78;5025948;28;20513;-81
2023/06/20 10:01:05;;;;;;;4.37;3.40;;;24.70;99.40;;;25.29;93.63;97719.38;5026501;28;20480;-82
2023/06/20 10:03:36;;;;;;;5.97;4.30;;;24.70;99.50;;;25.33;93.49;97717.72;5025605;28;21410;-81
2023/06/20 10:06:05;;;;;;;6.80;3.20;;;24.80;99.60;;;25.33;94.19;97715.84;5025721;28;20505;-82
2023/06/20 10:08:36;;;;;;;10.60;4.00;;;24.70;99.90;;;25.37;94.96;97716.84;5027152;28;20458;-81
2023/06/20 10:11:05;;;;;;;5.57;3.93;;;24.80;99.80;;;25.41;94.31;97723.22;5026249;28;20470;-81
2023/06/20 10:13:36;;;;;;;4.53;3.37;;;24.80;99.70;;;25.41;94.64;97725.09;5026219;28;20466;-81
2023/06/20 10:16:05;;;;;;;5.00;3.43;;;24.80;99.80;;;25.44;93.79;97724.53;5025096;28;20466;-82
2023/06/20 10:18:38;;;;;;;5.90;3.63;;;24.80;99.40;;;25.43;92.19;97725.59;5026420;28;20466;-82
2023/06/20 10:21:13;;;;;;;6.60;3.90;;;24.80;99.20;;;25.50;92.78;97726.88;5026614;28;20536;-81
2023/06/20 10:23:45;;;;;;;5.40;4.23;;;24.90;99.50;;;25.53;93.15;97731.63;5025730;28;20458;-81
2023/06/20 10:26:14;;;;;;;5.30;4.13;;;24.80;99.50;;;25.58;94.38;97719.25;5025029;28;20517;-82
2023/06/20 10:28:42;;;;;;;4.43;3.40;;;25.00;99.70;;;25.60;93.34;97730.47;5025728;28;20466;-81